Time;durP1;ratioP1;P1;durP2;ratioP2;P2;SDS_P1;SDS_P2;PMS_P1;PMS_P2;Temp;Humidity;BMP_temperature;BMP_pressure;BME280_temperature;BME280_humidity;BME280_pressure;Samples;Min_cycle;Max_cycle;Signal;HPM_P1;HPM_P2
2021/11/20 00:02:00;;;;;;;0.70;0.70;;;2.60;99.90;;;;;;5067447;28;20315;-69
2021/11/20 00:04:33;;;;;;;0.60;0.60;;;2.50;99.90;;;;;;5069438;28;20215;-70
2021/11/20 00:07:01;;;;;;;0.70;0.70;;;2.50;99.90;;;;;;5045215;28;20198;-69
2021/11/20 00:09:27;;;;;;;0.60;0.60;;;2.50;99.90;;;;;;5060707;28;21000;-69
2021/11/20 00:12:01;;;;;;;0.70;0.70;;;2.50;99.90;;;;;;5043943;23;20213;-73
2021/11/20 00:14:27;;;;;;;0.60;0.60;;;2.40;99.90;;;;;;5007503;28;20586;-73
2021/11/20 00:16:55;;;;;;;0.50;0.50;;;2.30;99.90;;;;;;5007801;28;20253;-74
2021/11/20 00:19:23;;;;;;;0.77;0.77;;;2.20;99.90;;;;;;5009275;28;20203;-74
2021/11/20 00:25:39;;;;;;;0.60;0.60;;;2.20;99.90;;;;;;4993596;28;20206;-73
2021/11/20 00:28:04;;;;;;;0.50;0.50;;;2.20;99.90;;;;;;5008667;28;20207;-73
2021/11/20 00:31:14;;;;;;;0.90;0.90;;;2.10;99.90;;;;;;5009615;28;20689;-73
2021/11/20 00:33:40;;;;;;;0.80;0.80;;;2.00;99.90;;;;;;5009748;28;20305;-73
2021/11/20 00:39:30;;;;;;;0.68;0.68;;;1.90;99.90;;;;;;5009055;28;20257;-74
2021/11/20 00:41:57;;;;;;;0.70;0.70;;;1.90;99.90;;;;;;5022136;28;20233;-74
2021/11/20 00:44:23;;;;;;;0.60;0.60;;;1.80;99.90;;;;;;5003333;28;20195;-74
2021/11/20 00:46:50;;;;;;;0.65;0.65;;;1.80;99.90;;;;;;5024316;28;20213;-73
2021/11/20 00:49:17;;;;;;;0.60;0.60;;;1.70;99.90;;;;;;5009266;28;20203;-73
2021/11/20 00:51:43;;;;;;;0.70;0.70;;;1.70;99.90;;;;;;5010500;28;20669;-74
2021/11/20 00:54:09;;;;;;;0.70;0.70;;;1.70;99.90;;;;;;5009754;28;20651;-73
2021/11/20 00:56:36;;;;;;;0.60;0.60;;;1.70;99.90;;;;;;5008141;28;20282;-73
2021/11/20 00:59:02;;;;;;;0.60;0.60;;;1.60;99.90;;;;;;5008256;28;20620;-73
2021/11/20 01:01:35;;;;;;;0.60;0.60;;;1.50;99.90;;;;;;5008493;28;20202;-73
2021/11/20 01:04:02;;;;;;;0.65;0.65;;;1.50;99.90;;;;;;5009438;28;20233;-73
2021/11/20 01:06:29;;;;;;;0.80;0.80;;;1.50;99.90;;;;;;5010778;28;20226;-73
2021/11/20 01:08:55;;;;;;;0.60;0.60;;;1.50;99.90;;;;;;5009645;28;20233;-73
2021/11/20 01:11:38;;;;;;;0.65;0.65;;;1.50;99.90;;;;;;5008677;28;20203;-73
2021/11/20 01:14:07;;;;;;;0.70;0.70;;;1.40;99.90;;;;;;5010729;28;20566;-73
2021/11/20 01:16:33;;;;;;;0.60;0.60;;;1.50;99.90;;;;;;5010686;28;20541;-73
2021/11/20 01:19:00;;;;;;;0.70;0.70;;;1.60;99.90;;;;;;5013214;28;20202;-73
2021/11/20 01:21:27;;;;;;;0.60;0.60;;;1.50;99.90;;;;;;5013008;28;20241;-74
2021/11/20 01:23:53;;;;;;;0.70;0.70;;;1.50;99.90;;;;;;5014365;28;20685;-73
2021/11/20 01:26:20;;;;;;;0.60;0.60;;;1.50;99.90;;;;;;5013264;28;20229;-73
2021/11/20 01:28:51;;;;;;;0.70;0.70;;;1.40;99.90;;;;;;5014491;28;20206;-73
2021/11/20 01:31:22;;;;;;;0.90;0.90;;;1.30;99.90;;;;;;5012267;28;20219;-72
2021/11/20 01:33:48;;;;;;;0.50;0.50;;;1.40;99.90;;;;;;5013700;28;20195;-72
2021/11/20 01:36:18;;;;;;;0.70;0.70;;;1.30;99.90;;;;;;5013564;28;20210;-73
2021/11/20 01:38:46;;;;;;;0.70;0.70;;;1.30;99.90;;;;;;5013279;28;20689;-73
2021/11/20 01:41:14;;;;;;;0.60;0.60;;;1.20;99.90;;;;;;5014163;28;20349;-73
2021/11/20 01:43:40;;;;;;;0.65;0.65;;;1.20;99.90;;;;;;5012976;28;20219;-74
2021/11/20 01:46:13;;;;;;;0.80;0.80;;;1.20;99.90;;;;;;5011495;28;20222;-73
2021/11/20 01:48:50;;;;;;;0.80;0.80;;;1.30;99.90;;;;;;5013717;28;20215;-73
2021/11/20 01:51:29;;;;;;;0.70;0.70;;;1.30;99.90;;;;;;5013977;28;20202;-72
2021/11/20 01:54:00;;;;;;;0.70;0.70;;;1.40;99.90;;;;;;5012516;28;20259;-73
2021/11/20 01:56:44;;;;;;;0.60;0.60;;;1.50;99.90;;;;;;5012529;28;20601;-72
2021/11/20 01:59:17;;;;;;;0.70;0.70;;;1.50;99.90;;;;;;5013802;28;20253;-73
2021/11/20 02:01:57;;;;;;;0.60;0.60;;;1.70;99.90;;;;;;5014824;28;20237;-76
2021/11/20 02:04:33;;;;;;;0.50;0.50;;;1.80;99.90;;;;;;5010953;28;20225;-75
2021/11/20 02:07:07;;;;;;;0.80;0.80;;;1.80;99.90;;;;;;5010581;28;20598;-75
2021/11/20 02:09:37;;;;;;;0.60;0.60;;;1.80;99.90;;;;;;5008637;28;20207;-75
2021/11/20 02:12:31;;;;;;;0.60;0.60;;;1.80;99.90;;;;;;5011757;28;20207;-75
2021/11/20 02:14:57;;;;;;;1.50;1.17;;;1.70;99.90;;;;;;5012344;28;20260;-75
2021/11/20 02:17:34;;;;;;;0.60;0.60;;;1.70;99.90;;;;;;5012011;28;20248;-75
2021/11/20 02:20:09;;;;;;;0.57;0.57;;;1.80;99.90;;;;;;5011512;28;20724;-75
2021/11/20 02:22:35;;;;;;;0.70;0.70;;;2.00;99.90;;;;;;5012113;28;20292;-75
2021/11/20 02:25:01;;;;;;;0.60;0.60;;;1.90;99.90;;;;;;5013533;28;20203;-76
2021/11/20 02:27:36;;;;;;;0.70;0.70;;;2.10;99.90;;;;;;5012537;28;20607;-75
2021/11/20 02:30:13;;;;;;;0.60;0.60;;;2.60;99.90;;;;;;5011757;28;20293;-75
2021/11/20 02:32:39;;;;;;;0.70;0.70;;;3.10;99.90;;;;;;5012069;28;20203;-74
2021/11/20 02:35:06;;;;;;;0.70;0.70;;;3.10;99.90;;;;;;5013588;28;20515;-74
2021/11/20 02:37:32;;;;;;;0.63;0.63;;;3.20;99.90;;;;;;5011428;28;20211;-75
2021/11/20 02:39:58;;;;;;;0.60;0.60;;;3.10;99.90;;;;;;5010562;28;20207;-75
2021/11/20 02:42:25;;;;;;;0.70;0.70;;;3.10;99.90;;;;;;5012615;28;20214;-75
2021/11/20 02:44:52;;;;;;;0.60;0.60;;;3.20;99.90;;;;;;5012797;28;20234;-75
2021/11/20 02:47:29;;;;;;;0.52;0.52;;;3.30;99.90;;;;;;5011440;28;20721;-75
2021/11/20 02:49:55;;;;;;;0.70;0.70;;;3.50;99.90;;;;;;5012607;28;20218;-75
2021/11/20 02:52:22;;;;;;;0.60;0.60;;;3.60;99.90;;;;;;5011275;28;20203;-75
2021/11/20 02:54:48;;;;;;;0.65;0.65;;;3.60;99.90;;;;;;5012640;28;20201;-75
2021/11/20 02:57:26;;;;;;;0.70;0.70;;;4.00;99.90;;;;;;5009906;28;20283;-76
2021/11/20 02:59:52;;;;;;;0.60;0.60;;;4.20;99.90;;;;;;5011261;28;20210;-76
2021/11/20 03:02:18;;;;;;;0.40;0.40;;;4.30;99.90;;;;;;5006125;28;20530;-76
2021/11/20 03:04:45;;;;;;;0.70;0.70;;;4.40;99.90;;;;;;5011654;28;20199;-75
2021/11/20 03:07:11;;;;;;;0.60;0.60;;;4.40;99.90;;;;;;5011191;28;20214;-75
2021/11/20 03:09:37;;;;;;;0.60;0.60;;;4.50;99.90;;;;;;5010927;28;20217;-75
2021/11/20 03:12:07;;;;;;;0.70;0.70;;;4.60;99.90;;;;;;5012326;28;20560;-75
2021/11/20 03:14:33;;;;;;;0.57;0.57;;;4.80;99.90;;;;;;5010859;28;20203;-75
2021/11/20 03:17:05;;;;;;;0.52;0.52;;;4.80;99.90;;;;;;5011198;28;20499;-75
2021/11/20 03:19:34;;;;;;;0.65;0.65;;;4.70;99.90;;;;;;5009195;28;20249;-75
2021/11/20 03:22:05;;;;;;;0.60;0.60;;;4.60;99.90;;;;;;5009492;28;20202;-76
2021/11/20 03:24:32;;;;;;;0.40;0.40;;;4.60;99.90;;;;;;5010643;28;20712;-76
2021/11/20 03:26:59;;;;;;;0.60;0.60;;;4.50;99.90;;;;;;5011914;28;20203;-76
2021/11/20 03:29:26;;;;;;;0.60;0.60;;;4.50;99.90;;;;;;5012088;28;20198;-75
2021/11/20 03:31:55;;;;;;;0.57;0.57;;;4.50;99.90;;;;;;5012087;28;20195;-75
2021/11/20 03:34:23;;;;;;;0.47;0.47;;;4.40;99.90;;;;;;5011924;28;20284;-75
2021/11/20 03:36:49;;;;;;;0.70;0.70;;;4.50;99.90;;;;;;5010515;28;20203;-75
2021/11/20 03:39:15;;;;;;;0.55;0.55;;;4.40;99.90;;;;;;5011376;28;20211;-76
2021/11/20 03:41:42;;;;;;;0.50;0.50;;;4.40;99.90;;;;;;5008074;28;20227;-76
2021/11/20 03:44:08;;;;;;;0.60;0.60;;;4.30;99.90;;;;;;5009499;28;20203;-76
2021/11/20 03:46:35;;;;;;;0.60;0.60;;;4.20;99.90;;;;;;5010303;28;20213;-76
2021/11/20 03:49:02;;;;;;;0.57;0.57;;;4.20;99.90;;;;;;5010512;28;20213;-75
2021/11/20 03:51:28;;;;;;;0.60;0.60;;;4.20;99.90;;;;;;5009252;28;20230;-75
2021/11/20 03:53:54;;;;;;;0.50;0.50;;;4.20;99.90;;;;;;5009317;28;20198;-76
2021/11/20 03:56:20;;;;;;;0.68;0.68;;;4.00;99.90;;;;;;5008843;28;20664;-76
2021/11/20 03:58:46;;;;;;;0.47;0.47;;;3.90;99.90;;;;;;5010613;28;20207;-76
2021/11/20 04:01:15;;;;;;;0.50;0.50;;;3.70;99.90;;;;;;5009863;28;20221;-75
2021/11/20 04:03:43;;;;;;;0.65;0.65;;;3.70;99.90;;;;;;5011209;28;20218;-76
2021/11/20 04:06:12;;;;;;;0.60;0.60;;;3.80;99.90;;;;;;5009130;28;20217;-76
2021/11/20 04:08:49;;;;;;;0.47;0.47;;;3.80;99.90;;;;;;5010044;28;20207;-75
2021/11/20 04:11:20;;;;;;;0.60;0.60;;;3.70;99.90;;;;;;5010460;28;20203;-75
2021/11/20 04:13:46;;;;;;;0.60;0.60;;;3.70;99.90;;;;;;5009713;28;20233;-76
2021/11/20 04:16:14;;;;;;;0.50;0.50;;;3.60;99.90;;;;;;5011359;28;20202;-76
2021/11/20 04:18:42;;;;;;;0.60;0.60;;;3.50;99.90;;;;;;5008890;28;20215;-76
2021/11/20 04:21:08;;;;;;;0.60;0.60;;;3.50;99.90;;;;;;5010008;28;20287;-76
2021/11/20 04:23:34;;;;;;;0.60;0.60;;;3.50;99.90;;;;;;5009973;28;20213;-76
2021/11/20 04:26:00;;;;;;;0.55;0.55;;;3.50;99.90;;;;;;5009015;28;20203;-76
2021/11/20 04:28:26;;;;;;;0.60;0.60;;;3.50;99.90;;;;;;5008745;28;20293;-75
2021/11/20 04:30:51;;;;;;;0.60;0.60;;;3.60;99.90;;;;;;4991620;28;20199;-76
2021/11/20 04:33:17;;;;;;;0.55;0.55;;;3.70;99.90;;;;;;5010050;28;20213;-76
2021/11/20 04:35:44;;;;;;;0.50;0.50;;;3.80;99.90;;;;;;5010292;28;20249;-75
2021/11/20 04:38:10;;;;;;;0.60;0.60;;;3.80;99.90;;;;;;5010206;28;20214;-75
2021/11/20 04:40:37;;;;;;;0.47;0.47;;;3.80;99.90;;;;;;5009882;28;20282;-76
2021/11/20 04:43:03;;;;;;;0.60;0.60;;;3.70;99.90;;;;;;5010020;28;20693;-75
2021/11/20 04:45:32;;;;;;;0.55;0.55;;;3.60;99.90;;;;;;5009706;28;20297;-75
2021/11/20 04:47:59;;;;;;;0.55;0.55;;;3.60;99.90;;;;;;5009883;28;20223;-75
2021/11/20 04:50:24;;;;;;;0.70;0.70;;;3.50;99.90;;;;;;5010896;28;20203;-75
2021/11/20 04:52:51;;;;;;;0.63;0.63;;;3.60;99.90;;;;;;5013136;28;20207;-75
2021/11/20 04:55:18;;;;;;;0.60;0.60;;;3.50;99.90;;;;;;5014026;28;20293;-75
2021/11/20 04:57:44;;;;;;;0.70;0.70;;;3.50;99.90;;;;;;5013587;28;20601;-76
2021/11/20 05:00:26;;;;;;;0.60;0.60;;;3.70;99.90;;;;;;5014885;28;20293;-76
2021/11/20 05:02:53;;;;;;;0.52;0.52;;;3.60;99.90;;;;;;5013529;28;20656;-76
2021/11/20 05:05:19;;;;;;;0.70;0.70;;;3.50;99.90;;;;;;5014705;28;20206;-76
2021/11/20 05:07:45;;;;;;;0.70;0.70;;;3.40;99.90;;;;;;5013653;28;20629;-76
2021/11/20 05:10:12;;;;;;;0.60;0.60;;;3.40;99.90;;;;;;5013316;28;20248;-75
2021/11/20 05:12:38;;;;;;;0.70;0.70;;;3.30;99.90;;;;;;5013074;28;20230;-75
2021/11/20 05:15:06;;;;;;;0.60;0.60;;;3.40;99.90;;;;;;5014642;28;20202;-76
2021/11/20 05:17:31;;;;;;;0.55;0.55;;;3.30;99.90;;;;;;5013280;28;20791;-76
2021/11/20 05:19:57;;;;;;;0.60;0.60;;;3.50;99.90;;;;;;5011803;28;20448;-76
2021/11/20 05:22:23;;;;;;;0.60;0.60;;;3.70;99.90;;;;;;5012913;28;20208;-75
2021/11/20 05:24:49;;;;;;;0.57;0.57;;;3.80;99.90;;;;;;5013391;28;20203;-75
2021/11/20 05:27:14;;;;;;;0.63;0.63;;;3.80;99.90;;;;;;5012814;28;20308;-76
2021/11/20 05:30:04;;;;;;;0.60;0.60;;;3.70;99.90;;;;;;5013574;28;20290;-76
2021/11/20 05:32:30;;;;;;;0.60;0.60;;;3.60;99.90;;;;;;4997304;28;20198;-76
2021/11/20 05:34:56;;;;;;;0.50;0.50;;;3.60;99.90;;;;;;5012723;28;20199;-76
2021/11/20 05:37:22;;;;;;;0.60;0.60;;;3.50;99.90;;;;;;5013054;28;20217;-76
2021/11/20 05:39:47;;;;;;;0.50;0.50;;;3.30;99.90;;;;;;5012790;28;20234;-76
2021/11/20 05:42:13;;;;;;;0.57;0.57;;;3.20;99.90;;;;;;5014058;28;20249;-75
2021/11/20 05:44:39;;;;;;;0.60;0.60;;;3.20;99.90;;;;;;5011562;28;20213;-76
2021/11/20 05:47:05;;;;;;;0.70;0.70;;;3.10;99.90;;;;;;5013900;28;20622;-75
2021/11/20 05:49:34;;;;;;;0.75;0.75;;;3.10;99.90;;;;;;5013743;28;20199;-76
2021/11/20 05:52:01;;;;;;;0.60;0.60;;;3.10;99.90;;;;;;5011669;28;20685;-76
2021/11/20 05:54:27;;;;;;;0.60;0.60;;;3.10;99.90;;;;;;5013601;28;20549;-76
2021/11/20 05:56:55;;;;;;;0.50;0.50;;;3.20;99.90;;;;;;5011793;28;20277;-75
2021/11/20 05:59:21;;;;;;;0.50;0.50;;;3.20;99.90;;;;;;5013602;28;20202;-76
2021/11/20 06:01:47;;;;;;;0.50;0.50;;;3.20;99.90;;;;;;5013534;28;20629;-75
2021/11/20 06:04:14;;;;;;;0.60;0.60;;;3.10;99.90;;;;;;5012745;28;20260;-76
2021/11/20 06:06:40;;;;;;;0.52;0.52;;;3.00;99.90;;;;;;5013357;28;20198;-76
2021/11/20 06:09:07;;;;;;;0.60;0.60;;;3.00;99.90;;;;;;5013520;28;20621;-75
2021/11/20 06:11:33;;;;;;;0.60;0.60;;;3.00;99.90;;;;;;5012042;28;20202;-75
2021/11/20 06:13:59;;;;;;;0.70;0.70;;;3.20;99.90;;;;;;5012162;28;20365;-75
2021/11/20 06:16:25;;;;;;;0.68;0.68;;;3.30;99.90;;;;;;5013189;28;20218;-76
2021/11/20 06:18:51;;;;;;;0.50;0.50;;;3.30;99.90;;;;;;5012111;28;20202;-76
2021/11/20 06:21:16;;;;;;;0.68;0.68;;;3.40;99.90;;;;;;5012049;28;20339;-76
2021/11/20 06:23:42;;;;;;;0.57;0.57;;;3.40;99.90;;;;;;5013251;28;20582;-76
2021/11/20 06:26:09;;;;;;;0.60;0.60;;;3.40;99.90;;;;;;5011755;28;20260;-75
2021/11/20 06:28:37;;;;;;;0.65;0.65;;;3.40;99.90;;;;;;5011190;28;20211;-76
2021/11/20 06:31:05;;;;;;;0.50;0.50;;;3.40;99.90;;;;;;5011886;28;20211;-76
2021/11/20 06:33:31;;;;;;;0.70;0.70;;;3.40;99.90;;;;;;5012172;28;20713;-75
2021/11/20 06:35:58;;;;;;;0.57;0.57;;;3.30;99.90;;;;;;5011804;28;20657;-75
2021/11/20 06:38:25;;;;;;;0.60;0.60;;;3.30;99.90;;;;;;5012807;28;20202;-76
2021/11/20 06:40:52;;;;;;;0.52;0.52;;;3.20;99.90;;;;;;5011739;28;20215;-76
2021/11/20 06:43:22;;;;;;;0.55;0.55;;;3.10;99.90;;;;;;5011636;28;20211;-76
2021/11/20 06:45:50;;;;;;;0.63;0.63;;;3.00;99.90;;;;;;5011626;28;20210;-76
2021/11/20 06:48:16;;;;;;;0.60;0.60;;;3.10;99.90;;;;;;5010509;28;20254;-76
2021/11/20 06:50:43;;;;;;;0.60;0.60;;;3.20;99.90;;;;;;5012437;28;20542;-76
2021/11/20 06:53:11;;;;;;;0.65;0.65;;;3.10;99.90;;;;;;5010652;28;20206;-76
2021/11/20 06:55:38;;;;;;;0.60;0.60;;;3.10;99.90;;;;;;5011250;28;20245;-76
2021/11/20 07:00:57;;;;;;;0.70;0.70;;;3.10;99.90;;;;;;4990926;28;20211;-76
2021/11/20 07:03:32;;;;;;;0.60;0.60;;;3.10;99.90;;;;;;5010913;28;20211;-76
2021/11/20 07:06:02;;;;;;;0.50;0.50;;;3.10;99.90;;;;;;5011087;28;20260;-76
2021/11/20 07:08:29;;;;;;;0.60;0.60;;;3.10;99.90;;;;;;5009695;28;20708;-76
2021/11/20 07:10:57;;;;;;;0.60;0.60;;;3.10;99.90;;;;;;5010011;28;20250;-76
2021/11/20 07:13:23;;;;;;;0.65;0.65;;;3.10;99.90;;;;;;5011948;28;20317;-75
2021/11/20 07:15:50;;;;;;;0.80;0.80;;;3.20;99.90;;;;;;5009381;28;20209;-76
2021/11/20 07:18:17;;;;;;;0.70;0.70;;;3.20;99.90;;;;;;5010802;28;20260;-75
2021/11/20 07:20:43;;;;;;;0.63;0.63;;;3.20;99.90;;;;;;5009141;28;20207;-75
2021/11/20 07:23:10;;;;;;;0.60;0.60;;;3.20;99.90;;;;;;5008166;28;20563;-75
2021/11/20 07:25:37;;;;;;;0.70;0.70;;;3.40;99.90;;;;;;4997081;28;20202;-76
2021/11/20 07:28:07;;;;;;;0.50;0.50;;;3.50;99.90;;;;;;5009634;28;20568;-76
2021/11/20 07:30:34;;;;;;;0.70;0.70;;;3.50;99.90;;;;;;5010683;28;20561;-76
2021/11/20 07:33:00;;;;;;;0.52;0.52;;;3.50;99.90;;;;;;5010753;28;20211;-76
2021/11/20 07:35:32;;;;;;;0.65;0.65;;;3.40;99.90;;;;;;5010813;28;20207;-77
2021/11/20 07:37:59;;;;;;;0.88;0.88;;;3.30;99.90;;;;;;5010536;28;20206;-77
2021/11/20 07:40:27;;;;;;;0.50;0.50;;;3.30;99.90;;;;;;5010369;28;20241;-76
2021/11/20 07:42:53;;;;;;;0.60;0.60;;;3.20;99.90;;;;;;5010080;28;20238;-75
2021/11/20 07:45:20;;;;;;;0.70;0.70;;;3.10;99.90;;;;;;5010349;28;20253;-76
2021/11/20 07:47:46;;;;;;;0.50;0.50;;;3.20;99.90;;;;;;5010595;28;20566;-76
2021/11/20 07:50:16;;;;;;;0.63;0.63;;;3.20;99.90;;;;;;5009594;28;20194;-76
2021/11/20 07:52:42;;;;;;;0.65;0.65;;;3.10;99.90;;;;;;5009547;28;20678;-76
2021/11/20 07:55:10;;;;;;;0.60;0.60;;;3.10;99.90;;;;;;5010403;28;20275;-76
2021/11/20 07:57:36;;;;;;;0.60;0.60;;;3.00;99.90;;;;;;5010099;28;20265;-75
2021/11/20 08:00:09;;;;;;;0.52;0.52;;;3.00;99.90;;;;;;5010320;28;20198;-76
2021/11/20 08:02:35;;;;;;;0.70;0.70;;;3.00;99.90;;;;;;5011182;28;20680;-76
2021/11/20 08:05:00;;;;;;;0.60;0.60;;;3.10;99.90;;;;;;5009339;28;20203;-78
2021/11/20 08:07:26;;;;;;;0.63;0.63;;;3.10;99.90;;;;;;5011346;28;20202;-76
2021/11/20 08:09:52;;;;;;;1.60;0.90;;;3.20;99.90;;;;;;5011273;28;20209;-76
2021/11/20 08:12:17;;;;;;;0.60;0.60;;;3.40;99.90;;;;;;5008972;28;20222;-76
2021/11/20 08:14:46;;;;;;;0.80;0.80;;;3.40;99.90;;;;;;5008962;28;20551;-75
2021/11/20 08:17:12;;;;;;;0.70;0.70;;;3.40;99.90;;;;;;5010327;28;20202;-75
2021/11/20 08:19:37;;;;;;;0.60;0.60;;;3.40;99.90;;;;;;5007765;28;20866;-75
2021/11/20 08:22:04;;;;;;;0.63;0.63;;;3.40;99.90;;;;;;5010200;28;20253;-76
2021/11/20 08:24:29;;;;;;;0.60;0.60;;;3.40;99.90;;;;;;5010192;28;20685;-75
2021/11/20 08:26:56;;;;;;;0.45;0.45;;;3.40;99.90;;;;;;5011843;28;20217;-75
2021/11/20 08:29:23;;;;;;;0.60;0.60;;;3.40;99.90;;;;;;5012791;28;20567;-75
2021/11/20 08:31:51;;;;;;;0.70;0.70;;;3.40;99.90;;;;;;5013073;28;20665;-75
2021/11/20 08:34:18;;;;;;;0.73;0.73;;;3.40;99.90;;;;;;5015192;28;20209;-75
2021/11/20 08:36:46;;;;;;;0.60;0.60;;;3.30;99.90;;;;;;5013097;28;20617;-75
2021/11/20 08:39:15;;;;;;;0.60;0.60;;;3.30;99.90;;;;;;5015437;28;20206;-74
2021/11/20 08:41:42;;;;;;;0.65;0.65;;;3.40;99.90;;;;;;5013713;28;20199;-75
2021/11/20 08:44:08;;;;;;;0.52;0.52;;;3.40;99.90;;;;;;5015351;28;20286;-75
2021/11/20 08:46:34;;;;;;;0.60;0.60;;;3.50;99.90;;;;;;5013630;28;20241;-75
2021/11/20 08:49:01;;;;;;;0.60;0.60;;;3.60;99.90;;;;;;5013753;28;20233;-75
2021/11/20 08:51:29;;;;;;;0.60;0.60;;;3.60;99.90;;;;;;5015226;28;20206;-74
2021/11/20 08:53:55;;;;;;;0.65;0.65;;;3.60;99.90;;;;;;5013094;28;20523;-75
2021/11/20 08:56:22;;;;;;;0.60;0.60;;;3.60;99.90;;;;;;5013919;28;20198;-75
2021/11/20 08:58:50;;;;;;;0.70;0.70;;;3.70;99.90;;;;;;5028748;28;20210;-75
2021/11/20 09:01:30;;;;;;;0.60;0.60;;;3.70;99.90;;;;;;5014738;28;20717;-74
2021/11/20 09:04:20;;;;;;;0.70;0.70;;;3.70;99.90;;;;;;5013924;28;20349;-75
2021/11/20 09:06:46;;;;;;;0.60;0.60;;;3.80;99.90;;;;;;4996854;28;20273;-74
2021/11/20 09:09:33;;;;;;;0.63;0.63;;;3.80;99.90;;;;;;5013412;28;20573;-75
2021/11/20 09:12:29;;;;;;;0.55;0.55;;;3.70;99.90;;;;;;4998156;28;20207;-74
2021/11/20 09:15:00;;;;;;;0.70;0.70;;;3.70;99.90;;;;;;5000052;28;20214;-75
2021/11/20 09:17:26;;;;;;;0.60;0.60;;;3.70;99.90;;;;;;5013022;28;20374;-75
2021/11/20 09:19:52;;;;;;;0.47;0.47;;;3.70;99.90;;;;;;5014464;28;20205;-74
2021/11/20 09:22:19;;;;;;;0.57;0.57;;;3.70;99.90;;;;;;5011991;28;20200;-75
2021/11/20 09:24:46;;;;;;;0.60;0.60;;;3.80;99.90;;;;;;5014271;28;20218;-75
2021/11/20 09:27:13;;;;;;;0.68;0.68;;;3.80;99.90;;;;;;5014085;28;20199;-74
2021/11/20 09:29:40;;;;;;;0.60;0.60;;;3.90;99.90;;;;;;5014095;28;20210;-74
2021/11/20 09:32:07;;;;;;;0.70;0.70;;;4.00;99.90;;;;;;5014609;28;20684;-74
2021/11/20 09:34:33;;;;;;;0.70;0.70;;;4.00;99.90;;;;;;5012119;28;20661;-74
2021/11/20 09:36:59;;;;;;;0.68;0.68;;;4.00;99.90;;;;;;5012954;28;20286;-74
2021/11/20 09:39:32;;;;;;;0.50;0.50;;;4.10;99.90;;;;;;5011294;28;20669;-74
2021/11/20 09:42:00;;;;;;;0.60;0.60;;;4.10;99.90;;;;;;5011423;28;20673;-75
2021/11/20 09:44:26;;;;;;;0.60;0.60;;;4.20;99.90;;;;;;5012758;28;20289;-75
2021/11/20 09:47:00;;;;;;;0.60;0.60;;;4.20;99.90;;;;;;5012931;28;20211;-74
2021/11/20 09:49:35;;;;;;;0.47;0.47;;;4.10;99.90;;;;;;5012394;28;20221;-75
2021/11/20 09:52:02;;;;;;;0.70;0.70;;;4.10;99.90;;;;;;5011213;28;20202;-74
2021/11/20 09:54:35;;;;;;;0.60;0.60;;;4.20;99.90;;;;;;5012387;28;20210;-74
2021/11/20 09:57:10;;;;;;;0.70;0.70;;;4.20;99.90;;;;;;5012375;28;20211;-73
2021/11/20 09:59:41;;;;;;;0.60;0.60;;;4.20;99.90;;;;;;5013648;28;20214;-75
2021/11/20 10:02:12;;;;;;;0.60;0.60;;;4.20;99.90;;;;;;5012579;28;20658;-75
2021/11/20 10:05:12;;;;;;;0.75;0.75;;;4.20;99.90;;;;;;5011244;28;20290;-76
2021/11/20 10:07:41;;;;;;;0.50;0.50;;;4.20;99.90;;;;;;5010665;28;20215;-76
2021/11/20 10:10:31;;;;;;;0.55;0.55;;;4.20;99.90;;;;;;5011240;28;20206;-76
2021/11/20 10:13:27;;;;;;;0.70;0.70;;;4.20;99.90;;;;;;5004346;28;20617;-77
2021/11/20 10:16:01;;;;;;;0.50;0.50;;;4.20;99.90;;;;;;5010936;28;20226;-77
2021/11/20 10:18:38;;;;;;;0.60;0.60;;;4.20;99.90;;;;;;5002556;28;20290;-77
2021/11/20 10:21:18;;;;;;;0.60;0.60;;;4.20;99.90;;;;;;5008031;28;20257;-77
2021/11/20 10:23:49;;;;;;;0.50;0.50;;;4.20;99.90;;;;;;5004425;28;20207;-75
2021/11/20 10:26:43;;;;;;;0.52;0.52;;;4.30;99.90;;;;;;5019347;28;20214;-75
2021/11/20 10:29:36;;;;;;;0.50;0.50;;;4.30;99.90;;;;;;5011064;28;20622;-76
2021/11/20 10:32:14;;;;;;;0.60;0.60;;;4.30;99.90;;;;;;5011488;28;20203;-76
2021/11/20 10:34:47;;;;;;;0.50;0.50;;;4.40;99.90;;;;;;5007776;28;20202;-75
2021/11/20 10:37:42;;;;;;;0.55;0.55;;;4.50;99.90;;;;;;5010899;28;20214;-76
2021/11/20 10:40:19;;;;;;;0.63;0.63;;;4.50;99.90;;;;;;5008382;28;20219;-75
2021/11/20 10:42:56;;;;;;;0.50;0.50;;;4.60;99.90;;;;;;5012132;28;20641;-75
2021/11/20 10:45:30;;;;;;;0.85;0.85;;;4.60;99.90;;;;;;5010192;28;20198;-75
2021/11/20 10:48:09;;;;;;;0.60;0.60;;;4.70;99.90;;;;;;5011373;28;20216;-75
2021/11/20 10:50:43;;;;;;;0.55;0.55;;;4.60;99.90;;;;;;5009809;28;20214;-75
2021/11/20 10:53:30;;;;;;;0.65;0.65;;;4.70;99.90;;;;;;5011590;28;20319;-75
2021/11/20 10:56:08;;;;;;;0.60;0.60;;;4.60;99.90;;;;;;4999772;28;20203;-75
2021/11/20 10:58:46;;;;;;;0.60;0.60;;;4.60;99.90;;;;;;5005693;28;20734;-76
2021/11/20 11:01:32;;;;;;;0.80;0.80;;;4.60;99.90;;;;;;5011383;28;20210;-75
2021/11/20 11:04:16;;;;;;;0.60;0.60;;;4.60;99.90;;;;;;5012456;28;20210;-75
2021/11/20 11:07:13;;;;;;;0.80;0.80;;;4.60;99.90;;;;;;5009881;28;20654;-75
2021/11/20 11:10:02;;;;;;;0.70;0.70;;;4.60;99.90;;;;;;5010740;28;20237;-75
2021/11/20 11:12:37;;;;;;;0.90;0.90;;;4.70;99.90;;;;;;5027917;28;20265;-75
2021/11/20 11:15:12;;;;;;;0.50;0.50;;;4.60;99.90;;;;;;5011494;28;20206;-76
2021/11/20 11:18:15;;;;;;;0.60;0.60;;;4.60;99.90;;;;;;5008797;28;20456;-74
2021/11/20 11:21:02;;;;;;;0.50;0.50;;;4.70;99.90;;;;;;4995203;28;20202;-76
2021/11/20 11:24:11;;;;;;;0.60;0.60;;;4.70;99.90;;;;;;5007679;28;20697;-75
2021/11/20 11:27:01;;;;;;;0.50;0.50;;;4.70;99.90;;;;;;4992181;28;20284;-76
2021/11/20 11:29:58;;;;;;;0.60;0.60;;;4.70;99.90;;;;;;5007998;28;20226;-75
2021/11/20 11:32:29;;;;;;;0.50;0.50;;;4.70;99.90;;;;;;5011837;28;20651;-75
2021/11/20 11:34:59;;;;;;;0.60;0.60;;;4.80;99.90;;;;;;5008395;28;20576;-75
2021/11/20 11:37:25;;;;;;;0.70;0.70;;;4.80;99.90;;;;;;5010288;28;20349;-75
2021/11/20 11:39:59;;;;;;;0.60;0.60;;;4.80;99.90;;;;;;5010470;28;20286;-75
2021/11/20 11:42:46;;;;;;;0.60;0.60;;;4.80;99.90;;;;;;5008933;28;20225;-75
2021/11/20 11:45:28;;;;;;;0.60;0.60;;;4.80;99.90;;;;;;5010567;28;20261;-75
2021/11/20 11:48:12;;;;;;;0.70;0.70;;;4.80;99.90;;;;;;5010566;28;20218;-73
2021/11/20 11:50:43;;;;;;;0.40;0.40;;;4.80;99.90;;;;;;5010994;28;20669;-74
2021/11/20 11:53:31;;;;;;;0.50;0.50;;;4.80;99.90;;;;;;5010547;28;20190;-77
2021/11/20 11:56:04;;;;;;;0.50;0.50;;;4.80;99.90;;;;;;5009473;28;20267;-74
2021/11/20 11:58:30;;;;;;;0.60;0.60;;;4.80;99.90;;;;;;5009896;28;20265;-77
2021/11/20 12:01:13;;;;;;;0.68;0.68;;;4.80;99.90;;;;;;5010195;28;20194;-76
2021/11/20 12:03:47;;;;;;;0.60;0.60;;;4.80;99.90;;;;;;5026041;28;20252;-77
2021/11/20 12:06:28;;;;;;;0.70;0.70;;;4.70;99.90;;;;;;5009544;28;20214;-76
2021/11/20 12:09:20;;;;;;;0.60;0.60;;;4.70;99.90;;;;;;4993853;28;20203;-75
2021/11/20 12:11:48;;;;;;;0.55;0.55;;;4.70;99.90;;;;;;5011278;28;20705;-76
2021/11/20 12:14:17;;;;;;;5.07;1.70;;;4.80;99.90;;;;;;5010016;28;20219;-77
2021/11/20 12:16:59;;;;;;;0.60;0.60;;;4.80;99.90;;;;;;5011125;28;20207;-74
2021/11/20 12:19:52;;;;;;;0.57;0.57;;;4.90;99.90;;;;;;5007373;28;20206;-76
2021/11/20 12:23:00;;;;;;;0.40;0.40;;;5.00;99.90;;;;;;4999008;28;20289;-76
2021/11/20 12:25:45;;;;;;;0.50;0.50;;;5.10;99.90;;;;;;5011195;28;20711;-76
2021/11/20 12:28:38;;;;;;;0.63;0.63;;;5.20;99.90;;;;;;5010264;28;20773;-76
2021/11/20 12:31:24;;;;;;;0.68;0.68;;;5.20;99.90;;;;;;5010078;28;20206;-74
2021/11/20 12:33:57;;;;;;;0.70;0.70;;;5.20;99.90;;;;;;5005875;28;20285;-75
2021/11/20 12:36:32;;;;;;;0.70;0.70;;;5.20;99.90;;;;;;5010182;28;20202;-76
2021/11/20 12:39:01;;;;;;;0.60;0.60;;;5.30;99.90;;;;;;5009854;28;20206;-76
2021/11/20 12:41:54;;;;;;;0.50;0.50;;;5.30;99.90;;;;;;5008729;28;20273;-76
2021/11/20 12:44:57;;;;;;;0.60;0.60;;;5.40;99.90;;;;;;5011464;28;20245;-75
2021/11/20 12:47:56;;;;;;;0.68;0.68;;;5.50;99.90;;;;;;5008519;28;20207;-77
2021/11/20 12:50:43;;;;;;;0.75;0.75;;;5.60;99.90;;;;;;5008323;28;20199;-77
2021/11/20 12:53:27;;;;;;;0.60;0.60;;;5.60;99.90;;;;;;5009974;28;20207;-76
2021/11/20 12:56:11;;;;;;;0.60;0.60;;;5.60;99.90;;;;;;5011124;28;20253;-76
2021/11/20 12:58:45;;;;;;;1.30;1.20;;;5.60;99.90;;;;;;5010953;28;20226;-77
2021/11/20 13:01:14;;;;;;;0.52;0.52;;;5.50;99.90;;;;;;5010994;28;20217;-76
2021/11/20 13:03:43;;;;;;;0.60;0.60;;;5.50;99.90;;;;;;5010021;28;20568;-76
2021/11/20 13:06:26;;;;;;;1.13;1.05;;;5.40;99.90;;;;;;5010861;28;20211;-77
2021/11/20 13:08:57;;;;;;;0.70;0.70;;;5.40;99.90;;;;;;5010911;28;20265;-77
2021/11/20 13:11:31;;;;;;;0.70;0.70;;;5.30;99.90;;;;;;5008373;28;20211;-76
2021/11/20 13:14:06;;;;;;;0.55;0.55;;;5.30;99.90;;;;;;5011562;28;20230;-76
2021/11/20 13:17:08;;;;;;;0.52;0.52;;;5.20;99.90;;;;;;5011964;28;20209;-75
2021/11/20 13:19:51;;;;;;;0.80;0.80;;;5.30;99.90;;;;;;5011689;28;20332;-75
2021/11/20 13:22:39;;;;;;;0.70;0.70;;;5.20;99.90;;;;;;5012168;28;20550;-75
2021/11/20 13:25:21;;;;;;;0.60;0.60;;;5.30;99.90;;;;;;5011998;28;20206;-75
2021/11/20 13:27:50;;;;;;;0.55;0.55;;;5.50;99.90;;;;;;5012425;28;20217;-75
2021/11/20 13:30:18;;;;;;;1.35;1.25;;;5.50;99.90;;;;;;5012083;28;20205;-76
2021/11/20 13:32:52;;;;;;;0.85;0.85;;;5.50;99.90;;;;;;5013154;28;20223;-76